Hlavní strana
METAR-TAF:

METAR-TAF

Letiště :

Tuscaloosa, Alabama, Spojené státy americké

zeměpisná šířka: 33-12-43N, zeměpisná délka: 087-36-57W, výška: 52 m

Aktuální stav počasí

Zpráva byla vytvořena před 7 minutami, v 18:53 UTC
Severoseverovýchodní vítr 14 kt
Teplota 13°C
Vlhkost vzduchu 33%
Tlak 1023 hPa
Viditelnost: 16.1 km
Jasno

METAR: KTCL 151853Z 02014KT 10SM CLR 13/M03 A3021 RMK AO2 SLP229 T01331028

Čas: 13:00 (19:00 UTC)

Předpověď počasí

Zpráva byla vytvořena před 1 hodinou a 24 minutami, v 17:36 UTC
Předpověď platná od 15 v 18 UTC do 16 v 18 UTC
Severní vítr 10 kt
Viditelnost: 10 km
Skoro jasno ve výšce 25000 ft
Od 16 v 0000 UTC
Severoseverozápadní vítr 7 kt
Viditelnost: 10 km
Skoro jasno ve výšce 25000 ft
Od 16 v 0800 UTC
vítr z různých směrů 4 kt
Viditelnost: 10 km
Jasno

TAF: KTCL 151736Z 1518/1618 36010KT P6SM FEW250 FM160000 34007KT P6SM FEW250 FM160800 VRB04KT P6SM SKC

Stav a předpovědi počasí z více než 4 000 letišť (zprávy METAR a TAF).

Červené a žluté tečky na mapě představují dostupné meteorologické stanice.

Když kurzor umístíte na tečku, zobrazí se název stanice.

Pak kliknutím zobrazíte stav a předpověď počasí.

Chcete-li změnit mapu, kliknutím na zelené tlačítko se znaménkem +mapu přiblížíte, kliknutím na zelené tlačítko se znaménkem – mapu oddálíte a kliknutím na zelené šipky přejdete na sousední mapy.


METAR-TAF: